Freestone, California
Current Conditions -  °F | °C
As of 1:53 PM on Monday 22 Dec 2014 (Local Time) from KSTS Reporting Station
Few Clouds Few Clouds  
Wind Chill: 70°   Ceiling: Unl
Heat Index: 70°   Visibility: 10mi
Dew Point: 55°   Wind: 10mph
Humidity: 59%   Direction: 350°N
Pressure: 30.18"   Gusts: NA
Location:  38.3844°N, 122.859°W
Report Text: KSTS 222153Z 35009KT 10SM FEW020 21/13 A3018 RMK AO2 SLP215 T02110128
Loading
Personal Weather Stations






























Interactive Weather Map New forecast layout! Learn more

10-Day Weather Forecast

Advertisements
Track Severe Weather on mobile